CheckWX is a tool to help pilots better visualize weather data.  It is not intended as a substitute for an official pre-flight weather briefing.

15:32:18 UTC

EGPE TAF
Inverness Airport
Inverness, United Kingdom
TAF EGPE 241357Z 2415/2424 25018KT 9999 FEW014 SCT030 TEMPO 2415/2421 28022G33KT 4000 SHRA SHGS BKN010CB

Mar-24@
15:00 UTC

Mar-24 @ 15:00 UTC

Mar-25@
00:00 UTC

Mar-25 @ 00:00 UTC

TAF EGPE 241357Z 2415/2424 25018KT 9999 FEW014 SCT030
Wind
  • 250° at 18 KTS
Cloud Levels
  • Few at 1,400' AGL
  • Scattered at 3,000' AGL

Mar-24@
15:00 UTC

Mar-24 @ 15:00 UTC

Mar-24@
21:00 UTC

Mar-24 @ 21:00 UTC

TEMPO 2415/2421 28022G33KT 4000 SHRA SHGS BKN010CB

Temporary

Temporary Changes expected for less than half the time period

Wind
  • 280° at 22 KTS
  • {Gusting to 33 KTS
Conditions
Rain, Small hail
Cloud Levels
  • Broken at 1,000' AGL